sensor_id;sensor_type;location;lat;lon;timestamp;P1;durP1;ratioP1;P2;durP2;ratioP2
73264;SDS011;61493;51.008;14.088;2023-04-06T00:01:33;11.40;;;5.00;;
73264;SDS011;61493;51.008;14.088;2023-04-06T00:03:59;7.63;;;3.83;;
73264;SDS011;61493;51.008;14.088;2023-04-06T00:06:24;7.73;;;4.07;;
73264;SDS011;61493;51.008;14.088;2023-04-06T00:08:49;6.53;;;3.87;;
73264;SDS011;61493;51.008;14.088;2023-04-06T00:11:14;9.13;;;4.00;;
73264;SDS011;61493;51.008;14.088;2023-04-06T00:13:41;6.77;;;3.97;;
73264;SDS011;61493;51.008;14.088;2023-04-06T00:16:06;5.25;;;3.42;;
73264;SDS011;61493;51.008;14.088;2023-04-06T00:18:31;7.25;;;4.07;;
73264;SDS011;61493;51.008;14.088;2023-04-06T00:20:59;8.60;;;4.83;;
73264;SDS011;61493;51.008;14.088;2023-04-06T00:23:25;9.60;;;5.03;;
73264;SDS011;61493;51.008;14.088;2023-04-06T00:25:50;10.90;;;5.23;;
73264;SDS011;61493;51.008;14.088;2023-04-06T00:28:15;8.53;;;4.67;;
73264;SDS011;61493;51.008;14.088;2023-04-06T00:30:41;10.77;;;5.37;;
73264;SDS011;61493;51.008;14.088;2023-04-06T00:33:06;8.67;;;4.93;;
73264;SDS011;61493;51.008;14.088;2023-04-06T00:35:31;8.27;;;4.47;;
73264;SDS011;61493;51.008;14.088;2023-04-06T00:37:56;6.03;;;3.43;;
73264;SDS011;61493;51.008;14.088;2023-04-06T00:40:21;8.80;;;4.38;;
73264;SDS011;61493;51.008;14.088;2023-04-06T00:42:47;8.83;;;3.67;;
73264;SDS011;61493;51.008;14.088;2023-04-06T00:45:12;6.77;;;4.10;;
73264;SDS011;61493;51.008;14.088;2023-04-06T00:47:37;7.93;;;4.20;;
73264;SDS011;61493;51.008;14.088;2023-04-06T00:50:02;5.73;;;3.87;;
73264;SDS011;61493;51.008;14.088;2023-04-06T00:52:27;9.17;;;4.30;;
73264;SDS011;61493;51.008;14.088;2023-04-06T00:54:53;8.30;;;3.72;;
73264;SDS011;61493;51.008;14.088;2023-04-06T00:57:18;10.63;;;3.93;;
73264;SDS011;61493;51.008;14.088;2023-04-06T00:59:43;14.43;;;7.03;;
73264;SDS011;61493;51.008;14.088;2023-04-06T01:02:08;17.13;;;7.80;;
73264;SDS011;61493;51.008;14.088;2023-04-06T01:04:34;9.40;;;6.23;;
73264;SDS011;61493;51.008;14.088;2023-04-06T01:06:59;6.47;;;4.17;;
73264;SDS011;61493;51.008;14.088;2023-04-06T01:09:24;8.80;;;4.20;;
73264;SDS011;61493;51.008;14.088;2023-04-06T01:11:50;7.20;;;4.70;;
73264;SDS011;61493;51.008;14.088;2023-04-06T01:14:15;8.17;;;3.87;;
73264;SDS011;61493;51.008;14.088;2023-04-06T01:16:40;9.90;;;4.43;;
73264;SDS011;61493;51.008;14.088;2023-04-06T01:19:09;8.00;;;4.13;;
73264;SDS011;61493;51.008;14.088;2023-04-06T01:21:36;7.63;;;4.03;;
73264;SDS011;61493;51.008;14.088;2023-04-06T01:24:01;4.23;;;3.60;;
73264;SDS011;61493;51.008;14.088;2023-04-06T01:26:26;8.13;;;3.97;;
73264;SDS011;61493;51.008;14.088;2023-04-06T01:28:52;6.47;;;4.37;;
73264;SDS011;61493;51.008;14.088;2023-04-06T01:31:17;7.57;;;4.33;;
73264;SDS011;61493;51.008;14.088;2023-04-06T01:33:42;6.33;;;3.77;;
73264;SDS011;61493;51.008;14.088;2023-04-06T01:36:07;7.97;;;3.97;;
73264;SDS011;61493;51.008;14.088;2023-04-06T01:38:32;6.00;;;3.77;;
73264;SDS011;61493;51.008;14.088;2023-04-06T01:40:58;7.30;;;4.07;;
73264;SDS011;61493;51.008;14.088;2023-04-06T01:43:23;7.33;;;3.57;;
73264;SDS011;61493;51.008;14.088;2023-04-06T01:45:48;7.27;;;3.50;;
73264;SDS011;61493;51.008;14.088;2023-04-06T01:48:13;10.60;;;5.22;;
73264;SDS011;61493;51.008;14.088;2023-04-06T01:50:38;8.87;;;3.77;;
73264;SDS011;61493;51.008;14.088;2023-04-06T01:53:03;6.87;;;3.53;;
73264;SDS011;61493;51.008;14.088;2023-04-06T01:55:29;6.37;;;3.83;;
73264;SDS011;61493;51.008;14.088;2023-04-06T01:57:54;7.17;;;4.07;;
73264;SDS011;61493;51.008;14.088;2023-04-06T02:00:22;7.90;;;3.33;;
73264;SDS011;61493;51.008;14.088;2023-04-06T02:02:48;7.60;;;3.60;;
73264;SDS011;61493;51.008;14.088;2023-04-06T02:05:13;6.57;;;3.70;;
73264;SDS011;61493;51.008;14.088;2023-04-06T02:07:38;7.03;;;4.13;;
73264;SDS011;61493;51.008;14.088;2023-04-06T02:10:03;6.87;;;3.77;;
73264;SDS011;61493;51.008;14.088;2023-04-06T02:12:29;7.83;;;3.87;;
73264;SDS011;61493;51.008;14.088;2023-04-06T02:14:54;6.03;;;4.00;;
73264;SDS011;61493;51.008;14.088;2023-04-06T02:17:19;4.87;;;3.40;;
73264;SDS011;61493;51.008;14.088;2023-04-06T02:19:45;5.13;;;3.53;;
73264;SDS011;61493;51.008;14.088;2023-04-06T02:22:10;4.77;;;3.50;;
73264;SDS011;61493;51.008;14.088;2023-04-06T02:24:35;8.40;;;4.57;;
73264;SDS011;61493;51.008;14.088;2023-04-06T02:27:01;8.67;;;4.27;;
73264;SDS011;61493;51.008;14.088;2023-04-06T02:29:26;7.35;;;4.55;;
73264;SDS011;61493;51.008;14.088;2023-04-06T02:31:51;8.53;;;4.17;;
73264;SDS011;61493;51.008;14.088;2023-04-06T02:34:17;6.73;;;4.43;;
73264;SDS011;61493;51.008;14.088;2023-04-06T02:36:45;7.23;;;4.23;;
73264;SDS011;61493;51.008;14.088;2023-04-06T02:39:10;9.67;;;4.73;;
73264;SDS011;61493;51.008;14.088;2023-04-06T02:41:36;6.80;;;4.77;;
73264;SDS011;61493;51.008;14.088;2023-04-06T02:44:01;8.73;;;3.35;;
73264;SDS011;61493;51.008;14.088;2023-04-06T02:46:26;7.50;;;4.40;;
73264;SDS011;61493;51.008;14.088;2023-04-06T02:48:51;7.13;;;3.87;;
73264;SDS011;61493;51.008;14.088;2023-04-06T02:51:17;6.50;;;4.03;;
73264;SDS011;61493;51.008;14.088;2023-04-06T02:53:42;6.00;;;3.70;;
73264;SDS011;61493;51.008;14.088;2023-04-06T02:56:07;5.33;;;3.67;;
73264;SDS011;61493;51.008;14.088;2023-04-06T02:58:32;7.88;;;3.83;;
73264;SDS011;61493;51.008;14.088;2023-04-06T03:00:58;7.47;;;4.50;;
73264;SDS011;61493;51.008;14.088;2023-04-06T03:03:23;5.55;;;3.65;;
73264;SDS011;61493;51.008;14.088;2023-04-06T03:05:48;5.73;;;3.30;;
73264;SDS011;61493;51.008;14.088;2023-04-06T03:08:13;8.23;;;4.35;;
73264;SDS011;61493;51.008;14.088;2023-04-06T03:10:39;5.37;;;3.83;;
73264;SDS011;61493;51.008;14.088;2023-04-06T03:13:04;7.50;;;3.70;;
73264;SDS011;61493;51.008;14.088;2023-04-06T03:15:30;8.07;;;4.07;;
73264;SDS011;61493;51.008;14.088;2023-04-06T03:17:55;7.88;;;3.92;;
73264;SDS011;61493;51.008;14.088;2023-04-06T03:20:20;7.50;;;4.03;;
73264;SDS011;61493;51.008;14.088;2023-04-06T03:22:45;8.63;;;3.20;;
73264;SDS011;61493;51.008;14.088;2023-04-06T03:25:10;7.20;;;4.47;;
73264;SDS011;61493;51.008;14.088;2023-04-06T03:27:36;6.50;;;4.20;;
73264;SDS011;61493;51.008;14.088;2023-04-06T03:30:01;4.28;;;3.10;;
73264;SDS011;61493;51.008;14.088;2023-04-06T03:32:26;6.40;;;3.27;;
73264;SDS011;61493;51.008;14.088;2023-04-06T03:34:51;7.35;;;4.07;;
73264;SDS011;61493;51.008;14.088;2023-04-06T03:37:16;10.67;;;4.63;;
73264;SDS011;61493;51.008;14.088;2023-04-06T03:39:42;6.53;;;3.57;;
73264;SDS011;61493;51.008;14.088;2023-04-06T03:42:07;7.70;;;4.03;;
73264;SDS011;61493;51.008;14.088;2023-04-06T03:44:32;7.72;;;4.07;;
73264;SDS011;61493;51.008;14.088;2023-04-06T03:46:57;6.73;;;3.97;;
73264;SDS011;61493;51.008;14.088;2023-04-06T03:49:22;6.00;;;4.13;;
73264;SDS011;61493;51.008;14.088;2023-04-06T03:51:47;6.20;;;4.50;;
73264;SDS011;61493;51.008;14.088;2023-04-06T03:54:13;8.90;;;5.07;;
73264;SDS011;61493;51.008;14.088;2023-04-06T03:56:38;6.23;;;4.17;;
73264;SDS011;61493;51.008;14.088;2023-04-06T03:59:03;6.20;;;4.03;;
73264;SDS011;61493;51.008;14.088;2023-04-06T04:01:29;9.73;;;5.13;;
73264;SDS011;61493;51.008;14.088;2023-04-06T04:03:54;5.43;;;4.23;;
73264;SDS011;61493;51.008;14.088;2023-04-06T04:06:19;10.80;;;4.50;;
73264;SDS011;61493;51.008;14.088;2023-04-06T04:08:44;9.37;;;4.47;;
73264;SDS011;61493;51.008;14.088;2023-04-06T04:11:10;6.33;;;3.77;;
73264;SDS011;61493;51.008;14.088;2023-04-06T04:13:35;6.57;;;3.73;;
73264;SDS011;61493;51.008;14.088;2023-04-06T04:16:00;6.70;;;4.40;;
73264;SDS011;61493;51.008;14.088;2023-04-06T04:18:25;5.73;;;3.47;;
73264;SDS011;61493;51.008;14.088;2023-04-06T04:20:50;7.23;;;3.73;;
73264;SDS011;61493;51.008;14.088;2023-04-06T04:23:15;5.70;;;3.37;;
73264;SDS011;61493;51.008;14.088;2023-04-06T04:25:41;6.32;;;3.88;;
73264;SDS011;61493;51.008;14.088;2023-04-06T04:28:06;6.07;;;4.17;;
73264;SDS011;61493;51.008;14.088;2023-04-06T04:30:31;7.00;;;3.20;;
73264;SDS011;61493;51.008;14.088;2023-04-06T04:32:56;6.63;;;3.87;;
73264;SDS011;61493;51.008;14.088;2023-04-06T04:35:21;8.40;;;4.37;;
73264;SDS011;61493;51.008;14.088;2023-04-06T04:37:46;7.57;;;3.90;;
73264;SDS011;61493;51.008;14.088;2023-04-06T04:40:12;5.90;;;4.10;;
73264;SDS011;61493;51.008;14.088;2023-04-06T04:42:37;6.10;;;3.47;;
73264;SDS011;61493;51.008;14.088;2023-04-06T04:45:02;11.53;;;4.77;;
73264;SDS011;61493;51.008;14.088;2023-04-06T04:47:27;5.77;;;3.97;;
73264;SDS011;61493;51.008;14.088;2023-04-06T04:49:52;8.70;;;4.90;;
73264;SDS011;61493;51.008;14.088;2023-04-06T04:52:18;12.83;;;4.73;;
73264;SDS011;61493;51.008;14.088;2023-04-06T04:54:43;6.07;;;4.13;;
73264;SDS011;61493;51.008;14.088;2023-04-06T04:57:08;11.53;;;5.40;;
73264;SDS011;61493;51.008;14.088;2023-04-06T04:59:34;7.18;;;5.03;;
73264;SDS011;61493;51.008;14.088;2023-04-06T05:01:59;8.73;;;5.03;;
73264;SDS011;61493;51.008;14.088;2023-04-06T05:04:24;5.20;;;3.83;;
73264;SDS011;61493;51.008;14.088;2023-04-06T05:06:50;8.20;;;4.53;;
73264;SDS011;61493;51.008;14.088;2023-04-06T05:09:15;7.80;;;4.17;;
73264;SDS011;61493;51.008;14.088;2023-04-06T05:11:40;7.93;;;5.03;;
73264;SDS011;61493;51.008;14.088;2023-04-06T05:14:06;10.00;;;5.40;;
73264;SDS011;61493;51.008;14.088;2023-04-06T05:16:31;7.20;;;4.40;;
73264;SDS011;61493;51.008;14.088;2023-04-06T05:18:56;8.83;;;4.47;;
73264;SDS011;61493;51.008;14.088;2023-04-06T05:21:24;7.97;;;4.87;;
73264;SDS011;61493;51.008;14.088;2023-04-06T05:23:51;14.57;;;5.43;;
73264;SDS011;61493;51.008;14.088;2023-04-06T05:26:16;7.67;;;5.17;;
73264;SDS011;61493;51.008;14.088;2023-04-06T05:28:41;10.53;;;4.40;;
73264;SDS011;61493;51.008;14.088;2023-04-06T05:31:07;9.30;;;4.30;;
73264;SDS011;61493;51.008;14.088;2023-04-06T05:33:32;9.00;;;4.23;;
73264;SDS011;61493;51.008;14.088;2023-04-06T05:35:57;5.67;;;4.43;;
73264;SDS011;61493;51.008;14.088;2023-04-06T05:38:23;10.07;;;4.33;;
73264;SDS011;61493;51.008;14.088;2023-04-06T05:40:48;7.60;;;4.40;;
73264;SDS011;61493;51.008;14.088;2023-04-06T05:43:13;8.93;;;4.60;;
73264;SDS011;61493;51.008;14.088;2023-04-06T05:45:38;11.20;;;6.90;;
73264;SDS011;61493;51.008;14.088;2023-04-06T05:48:03;13.43;;;8.15;;
73264;SDS011;61493;51.008;14.088;2023-04-06T05:50:29;11.80;;;8.13;;
73264;SDS011;61493;51.008;14.088;2023-04-06T05:52:54;15.25;;;6.97;;
73264;SDS011;61493;51.008;14.088;2023-04-06T05:55:19;6.95;;;4.43;;
73264;SDS011;61493;51.008;14.088;2023-04-06T05:57:44;6.15;;;3.67;;
73264;SDS011;61493;51.008;14.088;2023-04-06T06:00:10;6.75;;;3.88;;
73264;SDS011;61493;51.008;14.088;2023-04-06T06:02:35;7.75;;;3.83;;
73264;SDS011;61493;51.008;14.088;2023-04-06T06:05:00;7.45;;;3.70;;
73264;SDS011;61493;51.008;14.088;2023-04-06T06:07:25;5.95;;;3.70;;
73264;SDS011;61493;51.008;14.088;2023-04-06T06:09:51;7.88;;;4.18;;
73264;SDS011;61493;51.008;14.088;2023-04-06T06:12:16;7.85;;;3.90;;
73264;SDS011;61493;51.008;14.088;2023-04-06T06:14:41;6.03;;;3.20;;
73264;SDS011;61493;51.008;14.088;2023-04-06T06:17:06;6.35;;;3.70;;
73264;SDS011;61493;51.008;14.088;2023-04-06T06:19:31;7.38;;;3.85;;
73264;SDS011;61493;51.008;14.088;2023-04-06T06:21:57;3.95;;;2.55;;
73264;SDS011;61493;51.008;14.088;2023-04-06T06:24:23;6.63;;;3.78;;
73264;SDS011;61493;51.008;14.088;2023-04-06T06:26:48;8.30;;;3.95;;
73264;SDS011;61493;51.008;14.088;2023-04-06T06:29:13;6.40;;;3.60;;
73264;SDS011;61493;51.008;14.088;2023-04-06T06:31:39;7.75;;;3.60;;
73264;SDS011;61493;51.008;14.088;2023-04-06T06:34:04;7.72;;;4.30;;
73264;SDS011;61493;51.008;14.088;2023-04-06T06:36:30;7.13;;;3.78;;
73264;SDS011;61493;51.008;14.088;2023-04-06T06:38:56;5.82;;;3.78;;
73264;SDS011;61493;51.008;14.088;2023-04-06T06:41:22;7.40;;;4.03;;
73264;SDS011;61493;51.008;14.088;2023-04-06T06:43:50;6.38;;;3.20;;
73264;SDS011;61493;51.008;14.088;2023-04-06T06:46:15;5.93;;;3.85;;
73264;SDS011;61493;51.008;14.088;2023-04-06T06:48:40;6.47;;;4.00;;
73264;SDS011;61493;51.008;14.088;2023-04-06T06:51:05;8.65;;;4.63;;
73264;SDS011;61493;51.008;14.088;2023-04-06T06:53:31;7.13;;;4.45;;
73264;SDS011;61493;51.008;14.088;2023-04-06T06:55:56;6.82;;;3.95;;
73264;SDS011;61493;51.008;14.088;2023-04-06T06:58:21;6.63;;;3.60;;
73264;SDS011;61493;51.008;14.088;2023-04-06T07:00:46;10.93;;;3.53;;
73264;SDS011;61493;51.008;14.088;2023-04-06T07:03:11;7.32;;;4.07;;
73264;SDS011;61493;51.008;14.088;2023-04-06T07:05:39;7.40;;;4.70;;
73264;SDS011;61493;51.008;14.088;2023-04-06T07:08:09;7.90;;;4.72;;
73264;SDS011;61493;51.008;14.088;2023-04-06T07:10:34;6.43;;;4.05;;
73264;SDS011;61493;51.008;14.088;2023-04-06T07:13:00;6.53;;;4.18;;
73264;SDS011;61493;51.008;14.088;2023-04-06T07:15:25;6.57;;;4.47;;
73264;SDS011;61493;51.008;14.088;2023-04-06T07:17:50;5.78;;;3.85;;
73264;SDS011;61493;51.008;14.088;2023-04-06T07:20:17;6.63;;;3.92;;
73264;SDS011;61493;51.008;14.088;2023-04-06T07:22:42;6.32;;;4.05;;
73264;SDS011;61493;51.008;14.088;2023-04-06T07:25:08;7.65;;;4.28;;
73264;SDS011;61493;51.008;14.088;2023-04-06T07:27:33;9.02;;;4.82;;
73264;SDS011;61493;51.008;14.088;2023-04-06T07:29:58;10.25;;;5.47;;
73264;SDS011;61493;51.008;14.088;2023-04-06T07:32:24;6.77;;;3.33;;
73264;SDS011;61493;51.008;14.088;2023-04-06T07:34:49;6.28;;;3.55;;
73264;SDS011;61493;51.008;14.088;2023-04-06T07:37:14;7.32;;;3.80;;
73264;SDS011;61493;51.008;14.088;2023-04-06T07:39:39;9.47;;;5.17;;
73264;SDS011;61493;51.008;14.088;2023-04-06T07:42:05;5.72;;;3.10;;
73264;SDS011;61493;51.008;14.088;2023-04-06T07:44:30;7.77;;;3.30;;
73264;SDS011;61493;51.008;14.088;2023-04-06T07:46:55;8.13;;;3.37;;
73264;SDS011;61493;51.008;14.088;2023-04-06T07:49:21;5.07;;;2.80;;
73264;SDS011;61493;51.008;14.088;2023-04-06T07:51:47;5.60;;;3.78;;
73264;SDS011;61493;51.008;14.088;2023-04-06T07:54:12;4.55;;;2.80;;
73264;SDS011;61493;51.008;14.088;2023-04-06T07:56:38;7.75;;;4.07;;
73264;SDS011;61493;51.008;14.088;2023-04-06T07:59:03;4.63;;;2.50;;
73264;SDS011;61493;51.008;14.088;2023-04-06T08:01:28;6.53;;;2.70;;
73264;SDS011;61493;51.008;14.088;2023-04-06T08:03:53;4.35;;;2.28;;
73264;SDS011;61493;51.008;14.088;2023-04-06T08:06:20;6.05;;;2.67;;
73264;SDS011;61493;51.008;14.088;2023-04-06T08:08:45;5.28;;;2.40;;
73264;SDS011;61493;51.008;14.088;2023-04-06T08:11:10;3.50;;;2.30;;
73264;SDS011;61493;51.008;14.088;2023-04-06T08:13:36;5.05;;;2.70;;
73264;SDS011;61493;51.008;14.088;2023-04-06T08:16:01;3.58;;;2.03;;
73264;SDS011;61493;51.008;14.088;2023-04-06T08:18:26;3.50;;;2.17;;
73264;SDS011;61493;51.008;14.088;2023-04-06T08:20:51;3.70;;;2.40;;
73264;SDS011;61493;51.008;14.088;2023-04-06T08:23:16;4.00;;;1.95;;
73264;SDS011;61493;51.008;14.088;2023-04-06T08:25:42;4.95;;;2.22;;
73264;SDS011;61493;51.008;14.088;2023-04-06T08:28:07;5.43;;;2.67;;
73264;SDS011;61493;51.008;14.088;2023-04-06T08:30:34;3.28;;;2.17;;
73264;SDS011;61493;51.008;14.088;2023-04-06T08:32:59;3.58;;;2.25;;
73264;SDS011;61493;51.008;14.088;2023-04-06T08:35:25;4.97;;;2.92;;
73264;SDS011;61493;51.008;14.088;2023-04-06T08:37:50;3.30;;;2.20;;
73264;SDS011;61493;51.008;14.088;2023-04-06T08:40:15;4.25;;;2.58;;
73264;SDS011;61493;51.008;14.088;2023-04-06T08:42:42;4.20;;;2.33;;
73264;SDS011;61493;51.008;14.088;2023-04-06T08:45:09;3.35;;;2.17;;
73264;SDS011;61493;51.008;14.088;2023-04-06T08:47:34;3.78;;;2.50;;
73264;SDS011;61493;51.008;14.088;2023-04-06T08:50:01;4.88;;;2.75;;
73264;SDS011;61493;51.008;14.088;2023-04-06T08:52:28;3.72;;;2.05;;
73264;SDS011;61493;51.008;14.088;2023-04-06T08:54:54;4.47;;;2.25;;
73264;SDS011;61493;51.008;14.088;2023-04-06T08:57:19;3.67;;;2.20;;
73264;SDS011;61493;51.008;14.088;2023-04-06T08:59:44;4.28;;;2.65;;
73264;SDS011;61493;51.008;14.088;2023-04-06T09:02:15;4.53;;;2.55;;
73264;SDS011;61493;51.008;14.088;2023-04-06T09:04:42;4.80;;;2.70;;
73264;SDS011;61493;51.008;14.088;2023-04-06T09:07:07;3.78;;;2.80;;
73264;SDS011;61493;51.008;14.088;2023-04-06T09:09:32;3.33;;;2.67;;
73264;SDS011;61493;51.008;14.088;2023-04-06T09:11:57;4.07;;;2.27;;
73264;SDS011;61493;51.008;14.088;2023-04-06T09:14:36;6.18;;;3.05;;
73264;SDS011;61493;51.008;14.088;2023-04-06T09:17:03;5.20;;;3.20;;
73264;SDS011;61493;51.008;14.088;2023-04-06T09:19:28;5.80;;;3.22;;
73264;SDS011;61493;51.008;14.088;2023-04-06T09:22:03;4.30;;;2.70;;
73264;SDS011;61493;51.008;14.088;2023-04-06T09:24:38;4.60;;;2.40;;
73264;SDS011;61493;51.008;14.088;2023-04-06T09:27:03;4.95;;;2.75;;
73264;SDS011;61493;51.008;14.088;2023-04-06T09:29:29;5.13;;;2.60;;
73264;SDS011;61493;51.008;14.088;2023-04-06T09:32:03;3.87;;;2.40;;
73264;SDS011;61493;51.008;14.088;2023-04-06T09:34:29;4.57;;;2.88;;
73264;SDS011;61493;51.008;14.088;2023-04-06T09:36:55;3.50;;;2.83;;
73264;SDS011;61493;51.008;14.088;2023-04-06T09:39:21;3.42;;;2.50;;
73264;SDS011;61493;51.008;14.088;2023-04-06T09:41:49;3.70;;;2.22;;
73264;SDS011;61493;51.008;14.088;2023-04-06T09:44:15;3.17;;;1.92;;
73264;SDS011;61493;51.008;14.088;2023-04-06T09:46:41;3.08;;;2.10;;
73264;SDS011;61493;51.008;14.088;2023-04-06T09:49:07;3.42;;;2.17;;
73264;SDS011;61493;51.008;14.088;2023-04-06T09:51:55;4.32;;;2.30;;
73264;SDS011;61493;51.008;14.088;2023-04-06T09:54:19;4.47;;;2.08;;
73264;SDS011;61493;51.008;14.088;2023-04-06T09:56:46;3.08;;;2.05;;
73264;SDS011;61493;51.008;14.088;2023-04-06T10:01:46;2.60;;;1.80;;
73264;SDS011;61493;51.008;14.088;2023-04-06T10:04:24;2.40;;;1.92;;
73264;SDS011;61493;51.008;14.088;2023-04-06T10:06:51;3.25;;;2.05;;
73264;SDS011;61493;51.008;14.088;2023-04-06T10:09:17;3.53;;;2.13;;
73264;SDS011;61493;51.008;14.088;2023-04-06T10:11:43;3.22;;;2.17;;
73264;SDS011;61493;51.008;14.088;2023-04-06T10:14:08;4.50;;;1.95;;
73264;SDS011;61493;51.008;14.088;2023-04-06T10:16:37;3.20;;;2.33;;
73264;SDS011;61493;51.008;14.088;2023-04-06T10:19:05;4.50;;;2.40;;
73264;SDS011;61493;51.008;14.088;2023-04-06T10:21:32;4.25;;;2.67;;
73264;SDS011;61493;51.008;14.088;2023-04-06T10:23:59;4.68;;;2.90;;
73264;SDS011;61493;51.008;14.088;2023-04-06T10:26:24;4.25;;;2.03;;
73264;SDS011;61493;51.008;14.088;2023-04-06T10:28:49;3.33;;;2.03;;
73264;SDS011;61493;51.008;14.088;2023-04-06T10:31:15;3.58;;;2.05;;
73264;SDS011;61493;51.008;14.088;2023-04-06T10:33:58;3.70;;;2.42;;
73264;SDS011;61493;51.008;14.088;2023-04-06T10:36:24;3.78;;;1.92;;
73264;SDS011;61493;51.008;14.088;2023-04-06T10:38:54;3.60;;;2.30;;
73264;SDS011;61493;51.008;14.088;2023-04-06T10:41:20;2.42;;;2.00;;
73264;SDS011;61493;51.008;14.088;2023-04-06T10:43:46;3.20;;;2.08;;
73264;SDS011;61493;51.008;14.088;2023-04-06T10:46:24;3.97;;;2.40;;
73264;SDS011;61493;51.008;14.088;2023-04-06T10:48:49;3.58;;;2.15;;
73264;SDS011;61493;51.008;14.088;2023-04-06T10:51:16;4.15;;;2.33;;
73264;SDS011;61493;51.008;14.088;2023-04-06T10:53:42;3.00;;;2.20;;
73264;SDS011;61493;51.008;14.088;2023-04-06T10:56:09;4.07;;;2.50;;
73264;SDS011;61493;51.008;14.088;2023-04-06T10:58:35;4.18;;;2.13;;
73264;SDS011;61493;51.008;14.088;2023-04-06T11:01:01;3.50;;;2.17;;
73264;SDS011;61493;51.008;14.088;2023-04-06T11:03:26;3.33;;;2.00;;
73264;SDS011;61493;51.008;14.088;2023-04-06T11:05:52;3.35;;;2.22;;
73264;SDS011;61493;51.008;14.088;2023-04-06T11:08:28;4.45;;;2.15;;
73264;SDS011;61493;51.008;14.088;2023-04-06T11:11:09;5.57;;;2.20;;
73264;SDS011;61493;51.008;14.088;2023-04-06T11:13:39;2.95;;;2.10;;
73264;SDS011;61493;51.008;14.088;2023-04-06T11:16:04;3.25;;;2.35;;
73264;SDS011;61493;51.008;14.088;2023-04-06T11:18:29;3.50;;;2.03;;
73264;SDS011;61493;51.008;14.088;2023-04-06T11:20:54;4.53;;;2.22;;
73264;SDS011;61493;51.008;14.088;2023-04-06T11:23:23;4.35;;;2.10;;
73264;SDS011;61493;51.008;14.088;2023-04-06T11:25:50;2.92;;;2.03;;
73264;SDS011;61493;51.008;14.088;2023-04-06T11:28:16;3.45;;;2.10;;
73264;SDS011;61493;51.008;14.088;2023-04-06T11:30:41;4.60;;;2.33;;
73264;SDS011;61493;51.008;14.088;2023-04-06T11:33:10;3.53;;;2.22;;
73264;SDS011;61493;51.008;14.088;2023-04-06T11:35:35;3.65;;;2.40;;
73264;SDS011;61493;51.008;14.088;2023-04-06T11:38:05;3.08;;;2.28;;
73264;SDS011;61493;51.008;14.088;2023-04-06T11:40:30;4.75;;;2.60;;
73264;SDS011;61493;51.008;14.088;2023-04-06T11:42:58;3.60;;;2.28;;
73264;SDS011;61493;51.008;14.088;2023-04-06T11:45:23;4.55;;;2.60;;
73264;SDS011;61493;51.008;14.088;2023-04-06T11:47:57;3.70;;;2.40;;
73264;SDS011;61493;51.008;14.088;2023-04-06T11:50:24;3.53;;;2.25;;
73264;SDS011;61493;51.008;14.088;2023-04-06T11:52:59;3.63;;;2.20;;
73264;SDS011;61493;51.008;14.088;2023-04-06T11:55:25;4.40;;;2.55;;
73264;SDS011;61493;51.008;14.088;2023-04-06T11:57:51;3.47;;;2.20;;
73264;SDS011;61493;51.008;14.088;2023-04-06T12:00:16;4.10;;;2.20;;
73264;SDS011;61493;51.008;14.088;2023-04-06T12:02:45;3.70;;;2.38;;
73264;SDS011;61493;51.008;14.088;2023-04-06T12:05:10;5.40;;;3.22;;
73264;SDS011;61493;51.008;14.088;2023-04-06T12:07:35;4.13;;;2.43;;
73264;SDS011;61493;51.008;14.088;2023-04-06T12:10:01;4.80;;;2.28;;
73264;SDS011;61493;51.008;14.088;2023-04-06T12:12:27;2.90;;;2.13;;
73264;SDS011;61493;51.008;14.088;2023-04-06T12:14:52;3.80;;;2.97;;
73264;SDS011;61493;51.008;14.088;2023-04-06T12:17:18;4.22;;;2.47;;
73264;SDS011;61493;51.008;14.088;2023-04-06T12:19:43;3.92;;;2.30;;
73264;SDS011;61493;51.008;14.088;2023-04-06T12:22:08;4.38;;;2.45;;
73264;SDS011;61493;51.008;14.088;2023-04-06T12:24:34;3.60;;;2.47;;
73264;SDS011;61493;51.008;14.088;2023-04-06T12:26:59;3.33;;;2.47;;
73264;SDS011;61493;51.008;14.088;2023-04-06T12:29:24;3.83;;;2.23;;
73264;SDS011;61493;51.008;14.088;2023-04-06T12:31:50;4.00;;;3.25;;
73264;SDS011;61493;51.008;14.088;2023-04-06T12:34:15;5.25;;;2.50;;
73264;SDS011;61493;51.008;14.088;2023-04-06T12:36:41;4.93;;;2.78;;
73264;SDS011;61493;51.008;14.088;2023-04-06T12:39:06;4.15;;;2.70;;
73264;SDS011;61493;51.008;14.088;2023-04-06T12:41:31;4.90;;;2.75;;
73264;SDS011;61493;51.008;14.088;2023-04-06T12:43:57;5.22;;;2.42;;
73264;SDS011;61493;51.008;14.088;2023-04-06T12:46:24;4.35;;;2.63;;
73264;SDS011;61493;51.008;14.088;2023-04-06T12:48:50;4.43;;;2.63;;
73264;SDS011;61493;51.008;14.088;2023-04-06T12:51:18;3.10;;;2.10;;
73264;SDS011;61493;51.008;14.088;2023-04-06T12:53:43;4.50;;;2.45;;
73264;SDS011;61493;51.008;14.088;2023-04-06T12:56:15;3.90;;;2.15;;
73264;SDS011;61493;51.008;14.088;2023-04-06T12:58:42;4.05;;;3.00;;
73264;SDS011;61493;51.008;14.088;2023-04-06T13:01:07;4.32;;;3.17;;
73264;SDS011;61493;51.008;14.088;2023-04-06T13:03:32;5.78;;;2.33;;
73264;SDS011;61493;51.008;14.088;2023-04-06T13:05:58;5.23;;;2.63;;
73264;SDS011;61493;51.008;14.088;2023-04-06T13:08:24;4.80;;;2.88;;
73264;SDS011;61493;51.008;14.088;2023-04-06T13:10:50;3.88;;;2.63;;
73264;SDS011;61493;51.008;14.088;2023-04-06T13:13:15;4.18;;;3.22;;
73264;SDS011;61493;51.008;14.088;2023-04-06T13:15:41;4.80;;;2.53;;
73264;SDS011;61493;51.008;14.088;2023-04-06T13:18:06;4.25;;;2.20;;
73264;SDS011;61493;51.008;14.088;2023-04-06T13:20:31;5.68;;;2.70;;
73264;SDS011;61493;51.008;14.088;2023-04-06T13:22:56;2.93;;;2.60;;
73264;SDS011;61493;51.008;14.088;2023-04-06T13:25:22;3.77;;;2.50;;
73264;SDS011;61493;51.008;14.088;2023-04-06T13:27:47;5.13;;;3.08;;
73264;SDS011;61493;51.008;14.088;2023-04-06T13:30:13;5.68;;;3.10;;
73264;SDS011;61493;51.008;14.088;2023-04-06T13:32:41;4.50;;;3.13;;
73264;SDS011;61493;51.008;14.088;2023-04-06T13:35:07;3.05;;;2.30;;
73264;SDS011;61493;51.008;14.088;2023-04-06T13:37:32;4.03;;;2.72;;
73264;SDS011;61493;51.008;14.088;2023-04-06T13:39:58;3.97;;;2.75;;
73264;SDS011;61493;51.008;14.088;2023-04-06T13:42:23;3.90;;;2.65;;
73264;SDS011;61493;51.008;14.088;2023-04-06T13:44:48;4.15;;;3.00;;
73264;SDS011;61493;51.008;14.088;2023-04-06T13:47:15;3.50;;;2.70;;
73264;SDS011;61493;51.008;14.088;2023-04-06T13:49:40;4.22;;;2.70;;
73264;SDS011;61493;51.008;14.088;2023-04-06T13:52:06;3.90;;;2.67;;
73264;SDS011;61493;51.008;14.088;2023-04-06T13:54:31;5.90;;;3.30;;
73264;SDS011;61493;51.008;14.088;2023-04-06T13:56:56;5.90;;;3.60;;
73264;SDS011;61493;51.008;14.088;2023-04-06T13:59:22;4.70;;;2.83;;
73264;SDS011;61493;51.008;14.088;2023-04-06T14:01:47;3.80;;;2.50;;
73264;SDS011;61493;51.008;14.088;2023-04-06T14:04:12;5.18;;;2.97;;
73264;SDS011;61493;51.008;14.088;2023-04-06T14:06:38;4.93;;;2.65;;
73264;SDS011;61493;51.008;14.088;2023-04-06T14:09:03;3.58;;;2.40;;
73264;SDS011;61493;51.008;14.088;2023-04-06T14:11:28;4.53;;;2.88;;
73264;SDS011;61493;51.008;14.088;2023-04-06T14:13:54;5.18;;;2.88;;
73264;SDS011;61493;51.008;14.088;2023-04-06T14:16:19;5.53;;;2.90;;
73264;SDS011;61493;51.008;14.088;2023-04-06T14:18:46;4.30;;;2.70;;
73264;SDS011;61493;51.008;14.088;2023-04-06T14:21:11;4.03;;;2.58;;
73264;SDS011;61493;51.008;14.088;2023-04-06T14:23:36;3.75;;;2.80;;
73264;SDS011;61493;51.008;14.088;2023-04-06T14:26:05;5.28;;;3.13;;
73264;SDS011;61493;51.008;14.088;2023-04-06T14:28:31;5.93;;;3.17;;